Time,TemperatureF,DewpointF,PressureIn,WindDirection,WindDirectionDegrees,WindSpeedMPH,WindSpeedGustMPH,Humidity,HourlyPrecipIn,Conditions,Clouds,dailyrainin,SoftwareType,DateUTC
2013-01-25 00:00:00,52.3,46.0,29.97,North,349,0.0,0.0,79,0.00,,---,0.00,VWS V14.00,2013-01-25 08:00:00,
2013-01-25 00:06:00,52.3,46.0,29.97,North,349,0.0,0.0,79,0.00,,---,0.00,VWS V14.00,2013-01-25 08:06:00,
2013-01-25 00:12:00,52.3,46.0,29.97,North,349,0.0,0.0,79,0.00,,---,0.00,VWS V14.00,2013-01-25 08:12:00,
2013-01-25 00:17:00,52.3,46.0,29.94,North,349,0.0,0.0,79,0.00,,---,0.00,VWS V14.00,2013-01-25 08:17:00,
2013-01-25 00:23:00,52.3,46.0,29.94,North,349,0.0,0.0,79,0.00,,---,0.00,VWS V14.00,2013-01-25 08:23:00,
2013-01-25 00:28:00,52.3,46.0,29.94,North,349,0.0,0.0,79,0.00,,---,0.00,VWS V14.00,2013-01-25 08:28:00,
2013-01-25 00:33:00,52.3,46.0,29.94,North,349,0.0,0.0,79,0.00,,---,0.00,VWS V14.00,2013-01-25 08:33:00,
2013-01-25 00:38:00,52.3,46.0,29.94,North,349,0.0,0.0,79,0.00,,---,0.00,VWS V14.00,2013-01-25 08:38:00,
2013-01-25 00:44:00,52.3,46.0,29.94,North,349,0.0,0.0,79,0.00,,---,0.00,VWS V14.00,2013-01-25 08:44:00,
2013-01-25 00:49:00,52.3,46.0,29.94,North,349,0.0,0.0,79,0.00,,---,0.00,VWS V14.00,2013-01-25 08:49:00,
2013-01-25 00:54:00,52.3,46.0,29.94,North,349,0.0,0.0,79,0.00,,---,0.00,VWS V14.00,2013-01-25 08:54:00,
2013-01-25 01:00:00,52.3,46.0,29.94,North,349,0.0,0.0,79,0.00,,---,0.00,VWS V14.00,2013-01-25 09:00:00,
2013-01-25 01:06:00,52.3,46.0,29.94,North,349,0.0,0.0,79,0.00,,---,0.00,VWS V14.00,2013-01-25 09:06:00,
2013-01-25 01:11:00,52.3,46.0,29.94,North,349,0.0,0.0,79,0.00,,---,0.00,VWS V14.00,2013-01-25 09:11:00,
2013-01-25 01:16:00,52.3,46.0,29.94,North,349,0.0,0.0,79,0.00,,---,0.00,VWS V14.00,2013-01-25 09:16:00,
2013-01-25 01:21:00,52.2,45.8,29.94,North,349,0.0,0.0,79,0.00,,---,0.00,VWS V14.00,2013-01-25 09:21:00,
2013-01-25 01:27:00,52.2,45.8,29.94,North,349,0.0,0.0,79,0.00,,---,0.00,VWS V14.00,2013-01-25 09:27:00,
2013-01-25 01:33:00,52.2,45.8,29.94,North,349,0.0,0.0,79,0.00,,---,0.00,VWS V14.00,2013-01-25 09:33:00,
2013-01-25 01:38:00,52.2,45.8,29.94,North,349,0.0,0.0,79,0.00,,---,0.00,VWS V14.00,2013-01-25 09:38:00,
2013-01-25 01:43:00,52.2,45.8,29.94,North,349,0.0,0.0,79,0.00,,---,0.00,VWS V14.00,2013-01-25 09:43:00,
2013-01-25 01:48:00,52.2,45.8,29.94,North,349,0.0,0.0,79,0.00,,---,0.00,VWS V14.00,2013-01-25 09:48:00,
2013-01-25 01:54:00,52.2,45.8,29.94,North,349,0.0,0.0,79,0.00,,---,0.00,VWS V14.00,2013-01-25 09:54:00,
2013-01-25 01:59:00,52.2,45.8,29.94,North,349,0.0,0.0,79,0.00,,---,0.00,VWS V14.00,2013-01-25 09:59:00,
2013-01-25 02:05:00,52.2,45.8,29.94,North,349,0.0,0.0,79,0.00,,---,0.00,VWS V14.00,2013-01-25 10:05:00,
2013-01-25 02:11:00,52.2,45.8,29.94,North,349,0.0,0.0,79,0.00,,---,0.00,VWS V14.00,2013-01-25 10:11:00,
2013-01-25 02:16:00,52.2,45.8,29.94,North,349,0.0,0.0,79,0.00,,---,0.00,VWS V14.00,2013-01-25 10:16:00,
2013-01-25 02:22:00,52.2,45.8,29.94,North,349,0.0,0.0,79,0.00,,---,0.00,VWS V14.00,2013-01-25 10:22:00,
2013-01-25 02:27:00,52.2,45.8,29.94,North,349,0.0,0.0,79,0.00,,---,0.00,VWS V14.00,2013-01-25 10:27:00,
2013-01-25 02:33:00,52.2,45.8,29.94,North,349,0.0,0.0,79,0.00,,---,0.00,VWS V14.00,2013-01-25 10:33:00,
2013-01-25 02:38:00,52.2,45.8,29.94,North,349,0.0,0.0,79,0.00,,---,0.00,VWS V14.00,2013-01-25 10:38:00,
2013-01-25 02:43:00,52.2,45.8,29.94,North,349,0.0,0.0,79,0.00,,---,0.00,VWS V14.00,2013-01-25 10:43:00,
2013-01-25 02:48:00,52.2,45.8,29.94,North,349,0.0,0.0,79,0.00,,---,0.00,VWS V14.00,2013-01-25 10:48:00,
2013-01-25 02:54:00,52.3,46.0,29.94,North,349,0.0,0.0,79,0.00,,---,0.00,VWS V14.00,2013-01-25 10:54:00,
2013-01-25 03:00:00,52.3,46.0,29.94,North,349,0.0,0.0,79,0.00,,---,0.00,VWS V14.00,2013-01-25 11:00:00,
2013-01-25 03:05:00,52.3,46.0,29.94,North,349,0.0,0.0,79,0.00,,---,0.00,VWS V14.00,2013-01-25 11:05:00,
2013-01-25 03:10:00,52.3,46.0,29.94,North,349,0.0,0.0,79,0.00,,---,0.00,VWS V14.00,2013-01-25 11:10:00,
2013-01-25 03:16:00,52.3,46.0,29.94,North,349,0.0,0.0,79,0.00,,---,0.00,VWS V14.00,2013-01-25 11:16:00,
2013-01-25 03:21:00,52.3,46.0,29.94,North,349,0.0,0.0,79,0.00,,---,0.00,VWS V14.00,2013-01-25 11:21:00,
2013-01-25 03:26:00,52.2,45.8,29.94,North,349,0.0,0.0,79,0.00,,---,0.00,VWS V14.00,2013-01-25 11:26:00,
2013-01-25 03:31:00,52.2,45.8,29.94,North,349,0.0,0.0,79,0.00,,---,0.00,VWS V14.00,2013-01-25 11:31:00,
2013-01-25 03:37:00,52.0,45.7,29.94,North,349,0.0,0.0,79,0.00,,---,0.00,VWS V14.00,2013-01-25 11:37:00,
2013-01-25 03:42:00,52.0,45.7,29.94,North,349,0.0,0.0,79,0.04,,---,0.04,VWS V14.00,2013-01-25 11:42:00,
2013-01-25 03:47:00,51.8,45.5,29.94,North,349,0.0,0.0,79,0.04,,---,0.04,VWS V14.00,2013-01-25 11:47:00,
2013-01-25 03:52:00,51.8,45.5,29.94,North,349,0.0,0.0,79,0.04,,---,0.04,VWS V14.00,2013-01-25 11:52:00,
2013-01-25 03:58:00,51.6,45.7,29.94,North,349,0.0,0.0,80,0.04,,---,0.04,VWS V14.00,2013-01-25 11:58:00,
2013-01-25 04:04:00,51.3,45.3,29.91,North,349,0.0,0.0,80,0.04,,---,0.04,VWS V14.00,2013-01-25 12:04:00,
2013-01-25 04:10:00,51.1,45.1,29.91,North,349,0.0,0.0,80,0.04,,---,0.04,VWS V14.00,2013-01-25 12:10:00,
2013-01-25 04:15:00,51.1,45.1,29.91,North,349,0.0,0.0,80,0.04,,---,0.04,VWS V14.00,2013-01-25 12:15:00,
2013-01-25 04:21:00,50.9,45.0,29.91,North,349,0.0,0.0,80,0.04,,---,0.04,VWS V14.00,2013-01-25 12:21:00,
2013-01-25 04:26:00,50.9,45.0,29.91,North,349,0.0,0.0,80,0.04,,---,0.04,VWS V14.00,2013-01-25 12:26:00,
2013-01-25 04:31:00,50.7,44.8,29.91,North,349,0.0,0.0,80,0.04,,---,0.04,VWS V14.00,2013-01-25 12:31:00,
2013-01-25 04:37:00,50.7,44.8,29.91,North,349,0.0,0.0,80,0.04,,---,0.04,VWS V14.00,2013-01-25 12:37:00,
2013-01-25 04:43:00,50.7,44.8,29.91,North,349,0.0,0.0,80,0.00,,---,0.04,VWS V14.00,2013-01-25 12:43:00,
2013-01-25 04:48:00,50.7,44.8,29.91,North,349,0.0,0.0,80,0.00,,---,0.04,VWS V14.00,2013-01-25 12:48:00,
2013-01-25 04:53:00,50.9,45.0,29.91,NW,324,0.0,0.0,80,0.00,,---,0.04,VWS V14.00,2013-01-25 12:53:00,
2013-01-25 04:58:00,51.3,45.3,29.91,NW,323,0.0,0.0,80,0.00,,---,0.04,VWS V14.00,2013-01-25 12:58:00,
2013-01-25 05:04:00,51.4,45.5,29.91,NW,310,0.0,2.7,80,0.00,,---,0.04,VWS V14.00,2013-01-25 13:04:00,
2013-01-25 05:10:00,51.6,45.7,29.91,WNW,293,2.2,3.6,80,0.00,,---,0.04,VWS V14.00,2013-01-25 13:10:00,
2013-01-25 05:15:00,51.6,45.7,29.91,WNW,302,2.7,3.1,80,0.00,,---,0.04,VWS V14.00,2013-01-25 13:15:00,
2013-01-25 05:20:00,51.8,45.8,29.94,NNW,329,3.6,4.0,80,0.00,,---,0.04,VWS V14.00,2013-01-25 13:20:00,
2013-01-25 05:25:00,51.8,45.8,29.94,WNW,302,3.1,5.4,80,0.00,,---,0.04,VWS V14.00,2013-01-25 13:25:00,
2013-01-25 05:30:00,51.8,45.8,29.94,NW,311,4.9,8.1,80,0.00,,---,0.04,VWS V14.00,2013-01-25 13:30:00,
2013-01-25 05:35:00,51.8,45.8,29.94,WNW,287,2.2,5.4,80,0.00,,---,0.04,VWS V14.00,2013-01-25 13:35:00,
2013-01-25 05:40:00,51.8,45.8,29.94,WNW,296,0.0,2.7,80,0.00,,---,0.04,VWS V14.00,2013-01-25 13:40:00,
2013-01-25 05:46:00,51.8,45.8,29.94,West,281,2.7,5.4,80,0.00,,---,0.04,VWS V14.00,2013-01-25 13:46:00,
2013-01-25 05:52:00,51.8,45.8,29.94,NNW,333,3.6,5.4,80,0.00,,---,0.04,VWS V14.00,2013-01-25 13:52:00,
2013-01-25 05:57:00,51.8,45.8,29.94,NNW,330,0.0,2.2,80,0.00,,---,0.04,VWS V14.00,2013-01-25 13:57:00,
2013-01-25 06:03:00,51.8,45.8,29.91,North,0,2.2,3.6,80,0.00,,---,0.04,VWS V14.00,2013-01-25 14:03:00,
2013-01-25 06:08:00,51.8,45.8,29.91,North,0,0.0,0.0,80,0.00,,---,0.04,VWS V14.00,2013-01-25 14:08:00,
2013-01-25 06:13:00,51.8,45.8,29.91,NNW,344,0.0,0.0,80,0.00,,---,0.04,VWS V14.00,2013-01-25 14:13:00,
2013-01-25 06:19:00,51.8,45.8,29.94,North,353,0.0,0.0,80,0.00,,---,0.04,VWS V14.00,2013-01-25 14:19:00,
2013-01-25 06:24:00,51.8,45.8,29.94,NNW,345,0.0,0.0,80,0.00,,---,0.04,VWS V14.00,2013-01-25 14:24:00,
2013-01-25 06:30:00,51.8,45.8,29.94,NNW,345,0.0,0.0,80,0.00,,---,0.04,VWS V14.00,2013-01-25 14:30:00,
2013-01-25 06:35:00,51.8,45.8,29.94,NNW,332,0.0,0.0,80,0.00,,---,0.04,VWS V14.00,2013-01-25 14:35:00,
2013-01-25 06:40:00,52.0,46.0,29.94,NNW,333,0.0,0.0,80,0.00,,---,0.04,VWS V14.00,2013-01-25 14:40:00,
2013-01-25 06:46:00,52.0,46.0,29.94,NNW,333,0.0,0.0,80,0.00,,---,0.04,VWS V14.00,2013-01-25 14:46:00,
2013-01-25 06:51:00,52.0,46.0,29.94,NNW,333,0.0,0.0,80,0.00,,---,0.04,VWS V14.00,2013-01-25 14:51:00,
2013-01-25 06:56:00,52.0,46.0,29.94,NNW,333,0.0,0.0,80,0.00,,---,0.04,VWS V14.00,2013-01-25 14:56:00,
2013-01-25 07:01:00,52.0,46.0,29.94,NNW,333,0.0,0.0,80,0.00,,---,0.04,VWS V14.00,2013-01-25 15:01:00,
2013-01-25 07:07:00,51.8,45.8,29.94,NNW,333,0.0,0.0,80,0.00,,---,0.04,VWS V14.00,2013-01-25 15:07:00,
2013-01-25 07:12:00,51.8,45.8,29.94,NNW,333,0.0,0.0,80,0.00,,---,0.04,VWS V14.00,2013-01-25 15:12:00,
2013-01-25 07:17:00,51.8,45.8,29.94,NNW,333,0.0,0.0,80,0.00,,---,0.04,VWS V14.00,2013-01-25 15:17:00,
2013-01-25 07:23:00,51.8,45.8,29.94,NNW,333,0.0,0.0,80,0.00,,---,0.04,VWS V14.00,2013-01-25 15:23:00,
2013-01-25 07:28:00,51.8,45.8,29.94,NNW,333,0.0,0.0,80,0.00,,---,0.04,VWS V14.00,2013-01-25 15:28:00,
2013-01-25 07:34:00,52.0,46.0,29.94,NNW,333,0.0,0.0,80,0.00,,---,0.04,VWS V14.00,2013-01-25 15:34:00,
2013-01-25 07:40:00,52.0,46.0,29.94,NNW,333,0.0,0.0,80,0.00,,---,0.04,VWS V14.00,2013-01-25 15:40:00,
2013-01-25 07:45:00,52.2,46.2,29.94,NNW,334,0.0,0.0,80,0.00,,---,0.04,VWS V14.00,2013-01-25 15:45:00,
2013-01-25 07:50:00,52.3,46.4,29.94,NNW,334,0.0,0.0,80,0.00,,---,0.04,VWS V14.00,2013-01-25 15:50:00,
2013-01-25 07:55:00,52.5,46.5,29.94,NNW,338,0.0,0.0,80,0.00,,---,0.04,VWS V14.00,2013-01-25 15:55:00,
2013-01-25 08:00:00,52.7,46.7,29.94,NNW,338,0.0,0.0,80,0.00,,---,0.04,VWS V14.00,2013-01-25 16:00:00,
2013-01-25 08:05:00,52.9,46.9,29.94,North,1,0.0,0.0,80,0.00,,---,0.04,VWS V14.00,2013-01-25 16:05:00,
2013-01-25 08:11:00,53.1,47.4,29.94,East,98,0.0,0.0,81,0.00,,---,0.04,VWS V14.00,2013-01-25 16:11:00,
2013-01-25 08:16:00,53.2,47.6,29.91,East,98,0.0,0.0,81,0.00,,---,0.04,VWS V14.00,2013-01-25 16:16:00,
2013-01-25 08:21:00,53.4,47.7,29.91,East,84,2.7,3.6,81,0.00,,---,0.04,VWS V14.00,2013-01-25 16:21:00,
2013-01-25 08:26:00,53.2,47.2,29.91,East,100,0.0,0.0,80,0.00,,---,0.04,VWS V14.00,2013-01-25 16:26:00,
2013-01-25 08:32:00,53.2,47.2,29.91,East,81,2.2,3.1,80,0.00,,---,0.04,VWS V14.00,2013-01-25 16:32:00,
2013-01-25 08:37:00,53.2,47.2,29.91,SE,129,0.0,3.1,80,0.00,,---,0.04,VWS V14.00,2013-01-25 16:37:00,
2013-01-25 08:43:00,53.2,47.6,29.91,ESE,120,2.7,2.7,81,0.00,,---,0.04,VWS V14.00,2013-01-25 16:43:00,
2013-01-25 08:48:00,53.4,47.7,29.91,ESE,120,0.0,0.0,81,0.00,,---,0.04,VWS V14.00,2013-01-25 16:48:00,
2013-01-25 08:53:00,53.8,47.8,29.91,ESE,120,0.0,0.0,80,0.00,,---,0.04,VWS V14.00,2013-01-25 16:53:00,
2013-01-25 08:59:00,54.0,47.9,29.91,NW,307,3.1,3.6,80,0.00,,---,0.04,VWS V14.00,2013-01-25 16:59:00,
2013-01-25 09:05:00,53.8,47.8,29.94,NW,314,2.2,2.2,80,0.00,,---,0.04,VWS V14.00,2013-01-25 17:05:00,
2013-01-25 09:10:00,54.0,47.9,29.94,WNW,293,3.6,3.6,80,0.00,,---,0.04,VWS V14.00,2013-01-25 17:10:00,
2013-01-25 09:15:00,54.1,48.1,29.94,WNW,302,2.7,4.0,80,0.00,,---,0.04,VWS V14.00,2013-01-25 17:15:00,
2013-01-25 09:20:00,54.3,48.6,29.94,WNW,289,2.7,2.7,81,0.00,,---,0.04,VWS V14.00,2013-01-25 17:20:00,
2013-01-25 09:25:00,54.3,48.6,29.94,WNW,298,5.4,5.4,81,0.00,,---,0.04,VWS V14.00,2013-01-25 17:25:00,
2013-01-25 09:30:00,54.9,49.2,29.94,NW,307,3.6,3.6,81,0.00,,---,0.04,VWS V14.00,2013-01-25 17:30:00,
2013-01-25 09:35:00,55.0,49.3,29.94,NW,304,5.4,5.4,81,0.00,,---,0.04,VWS V14.00,2013-01-25 17:35:00,
2013-01-25 09:41:00,55.2,49.5,29.94,NW,319,3.1,3.1,81,0.00,,---,0.04,VWS V14.00,2013-01-25 17:41:00,
2013-01-25 09:47:00,55.4,49.3,29.94,NNW,327,3.1,3.1,80,0.00,,---,0.04,VWS V14.00,2013-01-25 17:47:00,
2013-01-25 09:52:00,55.4,49.3,29.94,WNW,285,0.0,0.0,80,0.00,,---,0.04,VWS V14.00,2013-01-25 17:52:00,
2013-01-25 09:58:00,55.9,50.2,29.94,West,271,3.1,3.6,81,0.00,,---,0.04,VWS V14.00,2013-01-25 17:58:00,
2013-01-25 10:03:00,56.1,50.4,29.94,WSW,247,0.0,4.0,81,0.00,,---,0.04,VWS V14.00,2013-01-25 18:03:00,
2013-01-25 10:08:00,56.3,50.5,29.94,SW,216,3.1,3.1,81,0.00,,---,0.04,VWS V14.00,2013-01-25 18:08:00,
2013-01-25 10:13:00,56.7,50.9,29.94,SW,222,3.1,3.1,81,0.00,,---,0.04,VWS V14.00,2013-01-25 18:13:00,
2013-01-25 10:19:00,57.2,51.4,29.94,SW,234,2.7,2.7,81,0.00,,---,0.04,VWS V14.00,2013-01-25 18:19:00,
2013-01-25 10:24:00,57.7,52.0,29.94,West,280,3.1,4.0,81,0.00,,---,0.04,VWS V14.00,2013-01-25 18:24:00,
2013-01-25 10:29:00,57.9,51.8,29.94,WSW,240,4.0,5.4,80,0.00,,---,0.04,VWS V14.00,2013-01-25 18:29:00,
2013-01-25 10:34:00,57.9,51.8,29.94,WSW,246,4.0,4.0,80,0.00,,---,0.04,VWS V14.00,2013-01-25 18:34:00,
2013-01-25 10:40:00,58.3,52.2,29.94,West,269,2.7,2.7,80,0.00,,---,0.04,VWS V14.00,2013-01-25 18:40:00,
2013-01-25 10:45:00,58.6,52.5,29.94,NW,318,4.9,7.6,80,0.00,,---,0.04,VWS V14.00,2013-01-25 18:45:00,
2013-01-25 10:50:00,58.5,52.0,29.91,NNW,342,3.6,3.6,79,0.00,,---,0.04,VWS V14.00,2013-01-25 18:50:00,
2013-01-25 10:56:00,58.8,52.7,29.91,NW,319,6.3,6.3,80,0.00,,---,0.04,VWS V14.00,2013-01-25 18:56:00,
2013-01-25 11:01:00,59.0,52.5,29.91,WNW,297,4.0,4.0,79,0.00,,---,0.04,VWS V14.00,2013-01-25 19:01:00,
2013-01-25 11:06:00,59.4,52.9,29.91,NW,310,6.3,8.1,79,0.00,,---,0.04,VWS V14.00,2013-01-25 19:06:00,
2013-01-25 11:11:00,58.5,51.3,29.91,WNW,292,3.1,3.1,77,0.00,,---,0.04,VWS V14.00,2013-01-25 19:11:00,
2013-01-25 11:17:00,58.5,51.3,29.91,NNE,27,0.0,0.0,77,0.00,,---,0.04,VWS V14.00,2013-01-25 19:17:00,
2013-01-25 11:22:00,58.6,52.2,29.91,WSW,255,2.7,3.6,79,0.00,,---,0.04,VWS V14.00,2013-01-25 19:22:00,
2013-01-25 11:27:00,58.6,52.2,29.91,West,265,3.6,6.3,79,0.00,,---,0.04,VWS V14.00,2013-01-25 19:27:00,
2013-01-25 11:33:00,58.6,51.8,29.91,WSW,242,2.7,3.1,78,0.00,,---,0.04,VWS V14.00,2013-01-25 19:33:00,
2013-01-25 11:39:00,58.6,51.8,29.91,West,263,4.0,4.0,78,0.00,,---,0.04,VWS V14.00,2013-01-25 19:39:00,
2013-01-25 11:44:00,58.6,51.8,29.91,NW,304,6.3,6.3,78,0.00,,---,0.04,VWS V14.00,2013-01-25 19:44:00,
2013-01-25 11:50:00,59.2,51.6,29.91,WNW,287,4.0,5.4,76,0.00,,---,0.04,VWS V14.00,2013-01-25 19:50:00,
2013-01-25 11:56:00,59.9,51.2,29.91,WNW,300,5.8,5.8,73,0.00,,---,0.04,VWS V14.00,2013-01-25 19:56:00,
2013-01-25 12:01:00,60.3,52.0,29.91,NNW,329,4.0,4.0,74,0.00,,---,0.04,VWS V14.00,2013-01-25 20:01:00,
2013-01-25 12:06:00,60.6,51.9,29.91,NNW,337,5.4,5.4,73,0.00,,---,0.04,VWS V14.00,2013-01-25 20:06:00,
2013-01-25 12:12:00,61.2,50.5,29.91,WSW,254,3.1,7.6,68,0.00,,---,0.04,VWS V14.00,2013-01-25 20:12:00,
2013-01-25 12:18:00,61.2,50.9,29.91,West,265,8.7,8.7,69,0.00,,---,0.04,VWS V14.00,2013-01-25 20:18:00,
2013-01-25 12:24:00,62.4,50.5,29.88,WNW,299,6.3,6.3,65,0.00,,---,0.04,VWS V14.00,2013-01-25 20:24:00,
2013-01-25 12:29:00,62.6,50.7,29.88,West,264,2.7,2.7,65,0.00,,---,0.04,VWS V14.00,2013-01-25 20:29:00,
2013-01-25 12:35:00,63.1,50.8,29.88,SW,236,2.7,2.7,64,0.00,,---,0.04,VWS V14.00,2013-01-25 20:35:00,
2013-01-25 12:40:00,63.9,51.9,29.88,North,357,6.3,6.3,65,0.00,,---,0.04,VWS V14.00,2013-01-25 20:40:00,
2013-01-25 12:45:00,63.9,48.3,29.88,WNW,302,7.2,7.2,57,0.00,,---,0.04,VWS V14.00,2013-01-25 20:45:00,
2013-01-25 12:51:00,63.9,47.9,29.88,WNW,301,5.8,6.3,56,0.00,,---,0.04,VWS V14.00,2013-01-25 20:51:00,
2013-01-25 12:56:00,64.2,47.2,29.88,NNW,335,7.6,7.6,54,0.00,,---,0.04,VWS V14.00,2013-01-25 20:56:00,
2013-01-25 13:02:00,64.2,46.2,29.88,NW,315,6.3,6.3,52,0.00,,---,0.04,VWS V14.00,2013-01-25 21:02:00,
2013-01-25 13:07:00,64.2,44.7,29.88,NNW,327,4.9,4.9,49,0.00,,---,0.04,VWS V14.00,2013-01-25 21:07:00,
2013-01-25 13:12:00,64.4,45.4,29.88,NNW,339,2.7,2.7,50,0.00,,---,0.04,VWS V14.00,2013-01-25 21:12:00,
2013-01-25 13:18:00,64.4,42.0,29.85,NW,307,5.8,5.8,44,0.00,,---,0.04,VWS V14.00,2013-01-25 21:18:00,
2013-01-25 13:24:00,64.4,42.6,29.85,North,350,4.0,4.0,45,0.00,,---,0.04,VWS V14.00,2013-01-25 21:24:00,
2013-01-25 13:29:00,64.8,43.0,29.85,NW,317,5.8,5.8,45,0.00,,---,0.04,VWS V14.00,2013-01-25 21:29:00,
2013-01-25 13:34:00,64.6,43.4,29.85,WNW,300,0.0,4.0,46,0.00,,---,0.04,VWS V14.00,2013-01-25 21:34:00,
2013-01-25 13:39:00,64.6,42.8,29.85,WNW,303,4.5,4.5,45,0.00,,---,0.04,VWS V14.00,2013-01-25 21:39:00,
2013-01-25 13:44:00,64.6,42.8,29.85,West,272,4.9,4.9,45,0.00,,---,0.04,VWS V14.00,2013-01-25 21:44:00,
2013-01-25 13:49:00,64.2,42.5,29.85,NNW,341,0.0,2.2,45,0.00,,---,0.04,VWS V14.00,2013-01-25 21:49:00,
2013-01-25 13:54:00,65.1,43.3,29.85,NW,325,2.7,4.9,45,0.00,,---,0.04,VWS V14.00,2013-01-25 21:54:00,
2013-01-25 14:00:00,66.4,43.8,29.85,WSW,245,4.9,4.9,44,0.00,,---,0.04,VWS V14.00,2013-01-25 22:00:00,
2013-01-25 14:05:00,66.6,42.8,29.85,WNW,303,5.4,5.4,42,0.00,,---,0.04,VWS V14.00,2013-01-25 22:05:00,
2013-01-25 14:10:00,66.6,41.5,29.85,WNW,302,5.4,5.4,40,0.00,,---,0.04,VWS V14.00,2013-01-25 22:10:00,
2013-01-25 14:15:00,66.6,40.2,29.85,North,5,6.3,6.3,38,0.00,,---,0.04,VWS V14.00,2013-01-25 22:15:00,
2013-01-25 14:21:00,66.7,41.0,29.83,WNW,296,5.8,5.8,39,0.00,,---,0.04,VWS V14.00,2013-01-25 22:21:00,
2013-01-25 14:27:00,66.4,39.3,29.83,NNW,340,4.0,4.0,37,0.00,,---,0.04,VWS V14.00,2013-01-25 22:27:00,
2013-01-25 14:33:00,66.4,39.3,29.85,North,353,5.4,5.4,37,0.00,,---,0.04,VWS V14.00,2013-01-25 22:33:00,
2013-01-25 14:38:00,66.2,38.5,29.85,WNW,293,6.3,6.3,36,0.00,,---,0.04,VWS V14.00,2013-01-25 22:38:00,
2013-01-25 14:43:00,66.0,38.3,29.85,WNW,287,8.1,8.7,36,0.00,,---,0.04,VWS V14.00,2013-01-25 22:43:00,
2013-01-25 14:48:00,66.2,38.5,29.85,NW,325,3.6,3.6,36,0.00,,---,0.04,VWS V14.00,2013-01-25 22:48:00,
2013-01-25 14:53:00,66.2,38.5,29.85,WNW,285,4.0,4.0,36,0.00,,---,0.04,VWS V14.00,2013-01-25 22:53:00,
2013-01-25 14:59:00,66.4,39.3,29.85,West,278,4.9,4.9,37,0.00,,---,0.04,VWS V14.00,2013-01-25 22:59:00,
2013-01-25 15:04:00,66.2,38.5,29.85,NW,319,5.4,5.4,36,0.00,,---,0.04,VWS V14.00,2013-01-25 23:04:00,
2013-01-25 15:09:00,66.0,39.0,29.85,West,274,0.0,4.9,37,0.00,,---,0.04,VWS V14.00,2013-01-25 23:09:00,
2013-01-25 15:15:00,66.6,38.8,29.85,WNW,303,3.6,6.3,36,0.00,,---,0.04,VWS V14.00,2013-01-25 23:15:00,
2013-01-25 15:20:00,66.2,38.5,29.85,NW,325,0.0,3.1,36,0.00,,---,0.04,VWS V14.00,2013-01-25 23:20:00,
2013-01-25 15:25:00,66.4,38.6,29.85,WSW,248,3.1,4.0,36,0.00,,---,0.04,VWS V14.00,2013-01-25 23:25:00,
2013-01-25 15:30:00,66.0,38.3,29.85,NNW,337,5.4,5.4,36,0.00,,---,0.04,VWS V14.00,2013-01-25 23:30:00,
2013-01-25 15:35:00,66.0,38.3,29.83,NNW,331,4.0,4.0,36,0.00,,---,0.04,VWS V14.00,2013-01-25 23:35:00,
2013-01-25 15:41:00,65.8,38.2,29.83,NW,320,4.0,4.0,36,0.00,,---,0.04,VWS V14.00,2013-01-25 23:41:00,
2013-01-25 15:47:00,66.0,38.3,29.83,WNW,301,2.2,2.2,36,0.00,,---,0.04,VWS V14.00,2013-01-25 23:47:00,
2013-01-25 15:52:00,65.8,38.2,29.83,WNW,294,3.1,4.0,36,0.00,,---,0.04,VWS V14.00,2013-01-25 23:52:00,
2013-01-25 15:57:00,65.5,37.8,29.83,WSW,247,2.7,4.9,36,0.00,,---,0.04,VWS V14.00,2013-01-25 23:57:00,
2013-01-25 16:02:00,64.9,36.7,29.83,NW,319,5.8,5.8,35,0.00,,---,0.04,VWS V14.00,2013-01-26 00:02:00,
2013-01-25 16:08:00,64.8,37.2,29.83,NW,307,5.8,5.8,36,0.00,,---,0.04,VWS V14.00,2013-01-26 00:08:00,
2013-01-25 16:13:00,64.2,36.7,29.83,NW,314,2.7,2.7,36,0.00,,---,0.04,VWS V14.00,2013-01-26 00:13:00,
2013-01-25 16:18:00,63.9,36.4,29.83,NW,305,5.8,5.8,36,0.00,,---,0.04,VWS V14.00,2013-01-26 00:18:00,
2013-01-25 16:23:00,63.7,36.2,29.83,NW,325,2.2,2.2,36,0.00,,---,0.04,VWS V14.00,2013-01-26 00:23:00,
2013-01-25 16:29:00,63.5,36.1,29.83,WNW,297,0.0,4.9,36,0.00,,---,0.04,VWS V14.00,2013-01-26 00:29:00,
2013-01-25 16:34:00,63.3,36.6,29.83,NW,323,2.2,2.2,37,0.00,,---,0.04,VWS V14.00,2013-01-26 00:34:00,
2013-01-25 16:39:00,63.1,36.5,29.83,NW,304,2.2,2.7,37,0.00,,---,0.04,VWS V14.00,2013-01-26 00:39:00,
2013-01-25 16:44:00,63.0,36.3,29.83,WNW,292,2.2,3.1,37,0.00,,---,0.04,VWS V14.00,2013-01-26 00:44:00,
2013-01-25 16:50:00,63.0,36.3,29.83,NNW,328,0.0,0.0,37,0.00,,---,0.04,VWS V14.00,2013-01-26 00:50:00,
2013-01-25 16:55:00,62.6,36.0,29.83,NNW,328,2.2,2.2,37,0.00,,---,0.04,VWS V14.00,2013-01-26 00:55:00,
2013-01-25 17:01:00,62.2,36.3,29.83,WNW,292,3.6,3.6,38,0.00,,---,0.04,VWS V14.00,2013-01-26 01:01:00,
2013-01-25 17:06:00,61.7,35.9,29.83,NW,305,0.0,0.0,38,0.00,,---,0.04,VWS V14.00,2013-01-26 01:06:00,
2013-01-25 17:11:00,61.0,35.2,29.83,NW,305,0.0,0.0,38,0.00,,---,0.04,VWS V14.00,2013-01-26 01:11:00,
2013-01-25 17:16:00,60.8,35.1,29.83,NW,305,0.0,0.0,38,0.00,,---,0.04,VWS V14.00,2013-01-26 01:16:00,
2013-01-25 17:22:00,60.1,35.1,29.83,NW,306,0.0,0.0,39,0.00,,---,0.04,VWS V14.00,2013-01-26 01:22:00,
2013-01-25 17:28:00,59.5,35.2,29.83,NW,305,0.0,0.0,40,0.00,,---,0.04,VWS V14.00,2013-01-26 01:28:00,
2013-01-25 17:33:00,58.8,35.2,29.83,NW,306,0.0,0.0,41,0.00,,---,0.04,VWS V14.00,2013-01-26 01:33:00,
2013-01-25 17:39:00,58.3,34.7,29.83,NW,305,0.0,0.0,41,0.00,,---,0.04,VWS V14.00,2013-01-26 01:39:00,
2013-01-25 17:44:00,58.1,34.5,29.83,NW,305,0.0,0.0,41,0.00,,---,0.04,VWS V14.00,2013-01-26 01:44:00,
2013-01-25 17:49:00,57.4,34.5,29.83,NW,305,0.0,0.0,42,0.00,,---,0.04,VWS V14.00,2013-01-26 01:49:00,
2013-01-25 17:55:00,56.8,34.6,29.83,NW,306,0.0,0.0,43,0.00,,---,0.04,VWS V14.00,2013-01-26 01:55:00,
2013-01-25 18:00:00,56.7,35.0,29.83,NW,306,0.0,0.0,44,0.00,,---,0.04,VWS V14.00,2013-01-26 02:00:00,
2013-01-25 18:05:00,56.3,34.7,29.83,NW,305,0.0,0.0,44,0.00,,---,0.04,VWS V14.00,2013-01-26 02:05:00,
2013-01-25 18:10:00,55.8,34.8,29.83,NW,305,0.0,0.0,45,0.00,,---,0.04,VWS V14.00,2013-01-26 02:10:00,
2013-01-25 18:15:00,55.4,34.4,29.83,NW,305,0.0,0.0,45,0.00,,---,0.04,VWS V14.00,2013-01-26 02:15:00,
2013-01-25 18:21:00,54.9,34.5,29.83,NW,305,0.0,0.0,46,0.00,,---,0.04,VWS V14.00,2013-01-26 02:21:00,
2013-01-25 18:26:00,54.5,34.2,29.83,NW,306,0.0,0.0,46,0.00,,---,0.04,VWS V14.00,2013-01-26 02:26:00,
2013-01-25 18:31:00,54.3,34.5,29.83,NW,306,0.0,0.0,47,0.00,,---,0.04,VWS V14.00,2013-01-26 02:31:00,
2013-01-25 18:37:00,54.3,34.5,29.83,NW,306,0.0,0.0,47,0.00,,---,0.04,VWS V14.00,2013-01-26 02:37:00,
2013-01-25 18:43:00,54.1,34.4,29.83,NW,305,0.0,0.0,47,0.00,,---,0.04,VWS V14.00,2013-01-26 02:43:00,
2013-01-25 18:48:00,54.1,34.9,29.83,NW,305,0.0,0.0,48,0.00,,---,0.04,VWS V14.00,2013-01-26 02:48:00,
2013-01-25 18:53:00,54.1,34.9,29.83,NW,305,0.0,0.0,48,0.00,,---,0.04,VWS V14.00,2013-01-26 02:53:00,
2013-01-25 18:58:00,54.1,34.9,29.83,NW,306,0.0,0.0,48,0.00,,---,0.04,VWS V14.00,2013-01-26 02:58:00,
2013-01-25 19:04:00,54.3,35.6,29.83,NW,306,0.0,0.0,49,0.00,,---,0.04,VWS V14.00,2013-01-26 03:04:00,
2013-01-25 19:10:00,54.3,35.6,29.83,NW,305,0.0,0.0,49,0.00,,---,0.04,VWS V14.00,2013-01-26 03:10:00,
2013-01-25 19:15:00,54.3,35.6,29.83,NW,306,0.0,0.0,49,0.00,,---,0.04,VWS V14.00,2013-01-26 03:15:00,
2013-01-25 19:21:00,54.5,36.3,29.80,NW,306,0.0,0.0,50,0.00,,---,0.04,VWS V14.00,2013-01-26 03:21:00,
2013-01-25 19:26:00,54.5,36.3,29.80,NW,305,0.0,0.0,50,0.00,,---,0.04,VWS V14.00,2013-01-26 03:26:00,
2013-01-25 19:31:00,54.5,36.3,29.80,NW,305,0.0,0.0,50,0.00,,---,0.04,VWS V14.00,2013-01-26 03:31:00,
2013-01-25 19:36:00,54.5,36.8,29.80,NW,305,0.0,0.0,51,0.00,,---,0.04,VWS V14.00,2013-01-26 03:36:00,
2013-01-25 19:42:00,54.5,36.8,29.80,NW,305,0.0,0.0,51,0.00,,---,0.04,VWS V14.00,2013-01-26 03:42:00,
2013-01-25 19:48:00,54.5,36.8,29.80,NW,305,0.0,0.0,51,0.00,,---,0.04,VWS V14.00,2013-01-26 03:48:00,
2013-01-25 19:53:00,54.5,37.2,29.80,NW,306,0.0,0.0,52,0.00,,---,0.04,VWS V14.00,2013-01-26 03:53:00,
2013-01-25 19:58:00,54.5,37.2,29.80,NW,306,0.0,0.0,52,0.00,,---,0.04,VWS V14.00,2013-01-26 03:58:00,
2013-01-25 20:04:00,54.5,37.2,29.80,NW,305,0.0,0.0,52,0.00,,---,0.04,VWS V14.00,2013-01-26 04:04:00,
2013-01-25 20:10:00,54.5,37.2,29.80,NW,305,0.0,0.0,52,0.00,,---,0.04,VWS V14.00,2013-01-26 04:10:00,
2013-01-25 20:16:00,54.5,37.7,29.80,East,99,4.0,4.0,53,0.00,,---,0.04,VWS V14.00,2013-01-26 04:16:00,
2013-01-25 20:21:00,54.7,37.9,29.80,SE,131,0.0,0.0,53,0.00,,---,0.04,VWS V14.00,2013-01-26 04:21:00,
2013-01-25 20:27:00,54.7,37.9,29.80,SE,130,0.0,0.0,53,0.00,,---,0.04,VWS V14.00,2013-01-26 04:27:00,
2013-01-25 20:32:00,55.0,38.7,29.80,SE,131,0.0,0.0,54,0.00,,---,0.04,VWS V14.00,2013-01-26 04:32:00,
2013-01-25 20:37:00,55.2,38.9,29.80,SE,130,0.0,0.0,54,0.00,,---,0.04,VWS V14.00,2013-01-26 04:37:00,
2013-01-25 20:42:00,55.2,38.9,29.80,SE,131,0.0,0.0,54,0.00,,---,0.04,VWS V14.00,2013-01-26 04:42:00,
2013-01-25 20:47:00,55.2,38.9,29.80,SE,131,0.0,0.0,54,0.00,,---,0.04,VWS V14.00,2013-01-26 04:47:00,
2013-01-25 20:52:00,55.2,38.9,29.83,SE,131,0.0,0.0,54,0.00,,---,0.04,VWS V14.00,2013-01-26 04:52:00,
2013-01-25 20:57:00,55.0,38.7,29.83,SE,131,0.0,0.0,54,0.00,,---,0.04,VWS V14.00,2013-01-26 04:57:00,
2013-01-25 21:00:00,54.9,39.0,29.83,SE,131,0.0,0.0,55,0.00,,---,0.04,VWS V14.00,2013-01-26 05:00:00,
2013-01-25 21:02:00,54.9,39.0,29.83,SE,131,0.0,0.0,55,0.00,,---,0.04,VWS V14.00,2013-01-26 05:02:00,
2013-01-25 21:06:00,54.7,38.8,29.83,SE,131,0.0,0.0,55,0.00,,---,0.04,VWS V14.00,2013-01-26 05:06:00,
2013-01-25 21:12:00,54.5,38.7,29.83,SE,131,0.0,0.0,55,0.00,,---,0.04,VWS V14.00,2013-01-26 05:12:00,
2013-01-25 21:13:00,54.5,38.7,29.83,SE,131,0.0,0.0,55,0.00,,---,0.04,VWS V14.00,2013-01-26 05:13:00,
2013-01-25 21:18:00,54.5,38.7,29.83,SE,131,0.0,0.0,55,0.00,,---,0.04,VWS V14.00,2013-01-26 05:18:00,
2013-01-25 21:24:00,54.3,38.5,29.83,SE,131,0.0,0.0,55,0.00,,---,0.04,VWS V14.00,2013-01-26 05:24:00,
2013-01-25 21:30:00,54.1,38.8,29.83,SE,131,0.0,0.0,56,0.00,,---,0.04,VWS V14.00,2013-01-26 05:30:00,
2013-01-25 21:36:00,54.1,38.8,29.83,SE,131,0.0,0.0,56,0.00,,---,0.04,VWS V14.00,2013-01-26 05:36:00,
2013-01-25 21:41:00,54.0,38.6,29.83,SE,131,0.0,0.0,56,0.00,,---,0.04,VWS V14.00,2013-01-26 05:41:00,
2013-01-25 21:47:00,53.6,38.3,29.83,SE,131,0.0,0.0,56,0.00,,---,0.04,VWS V14.00,2013-01-26 05:47:00,
2013-01-25 21:52:00,53.2,38.4,29.83,SE,131,0.0,0.0,57,0.00,,---,0.04,VWS V14.00,2013-01-26 05:52:00,
2013-01-25 21:58:00,53.1,38.2,29.83,SE,131,0.0,0.0,57,0.00,,---,0.04,VWS V14.00,2013-01-26 05:58:00,
2013-01-25 22:03:00,52.9,38.1,29.83,SE,131,0.0,0.0,57,0.00,,---,0.04,VWS V14.00,2013-01-26 06:03:00,
2013-01-25 22:08:00,52.5,37.7,29.83,SE,131,0.0,0.0,57,0.00,,---,0.04,VWS V14.00,2013-01-26 06:08:00,
2013-01-25 22:13:00,52.0,37.7,29.83,SE,131,0.0,0.0,58,0.00,,---,0.04,VWS V14.00,2013-01-26 06:13:00,
2013-01-25 22:19:00,52.0,37.7,29.83,SE,131,0.0,0.0,58,0.00,,---,0.04,VWS V14.00,2013-01-26 06:19:00,
2013-01-25 22:24:00,51.8,37.5,29.83,SE,131,0.0,0.0,58,0.00,,---,0.04,VWS V14.00,2013-01-26 06:24:00,
2013-01-25 22:29:00,51.6,37.8,29.83,SE,131,0.0,0.0,59,0.00,,---,0.04,VWS V14.00,2013-01-26 06:29:00,
2013-01-25 22:35:00,51.6,37.8,29.83,SE,131,0.0,0.0,59,0.00,,---,0.04,VWS V14.00,2013-01-26 06:35:00,
2013-01-25 22:41:00,51.4,38.0,29.83,SE,131,0.0,0.0,60,0.00,,---,0.04,VWS V14.00,2013-01-26 06:41:00,
2013-01-25 22:47:00,51.4,38.0,29.83,SE,131,0.0,0.0,60,0.00,,---,0.04,VWS V14.00,2013-01-26 06:47:00,
2013-01-25 22:52:00,51.3,37.9,29.83,SE,131,0.0,0.0,60,0.00,,---,0.04,VWS V14.00,2013-01-26 06:52:00,
2013-01-25 22:57:00,51.4,38.5,29.83,SE,131,0.0,0.0,61,0.00,,---,0.04,VWS V14.00,2013-01-26 06:57:00,
2013-01-25 23:02:00,51.4,38.5,29.83,SE,131,0.0,0.0,61,0.00,,---,0.04,VWS V14.00,2013-01-26 07:02:00,
2013-01-25 23:07:00,51.4,38.9,29.83,SE,131,0.0,0.0,62,0.00,,---,0.04,VWS V14.00,2013-01-26 07:07:00,
2013-01-25 23:12:00,51.4,38.9,29.83,SE,130,0.0,0.0,62,0.00,,---,0.04,VWS V14.00,2013-01-26 07:12:00,
2013-01-25 23:17:00,51.6,39.0,29.83,SE,131,0.0,0.0,62,0.00,,---,0.04,VWS V14.00,2013-01-26 07:17:00,
2013-01-25 23:23:00,51.8,39.6,29.83,SE,131,0.0,0.0,63,0.00,,---,0.04,VWS V14.00,2013-01-26 07:23:00,
2013-01-25 23:29:00,51.8,39.6,29.83,SE,131,0.0,0.0,63,0.00,,---,0.04,VWS V14.00,2013-01-26 07:29:00,
2013-01-25 23:34:00,51.8,39.6,29.83,SE,131,0.0,0.0,63,0.00,,---,0.04,VWS V14.00,2013-01-26 07:34:00,
2013-01-25 23:40:00,52.0,40.2,29.83,SE,131,0.0,0.0,64,0.00,,---,0.04,VWS V14.00,2013-01-26 07:40:00,
2013-01-25 23:46:00,52.2,40.4,29.80,East,99,0.0,0.0,64,0.00,,---,0.04,VWS V14.00,2013-01-26 07:46:00,
2013-01-25 23:51:00,52.2,41.2,29.80,East,93,2.7,2.7,66,0.00,,---,0.04,VWS V14.00,2013-01-26 07:51:00,
2013-01-25 23:56:00,52.3,41.3,29.80,ESE,106,2.7,2.7,66,0.00,,---,0.04,VWS V14.00,2013-01-26 07:56:00,